createdAt,value
2024-04-18T00:00:38.444Z,94199.00
2024-04-18T00:01:38.460Z,94198.00
2024-04-18T00:02:38.469Z,94199.00
2024-04-18T00:03:38.702Z,94198.00
2024-04-18T00:04:38.616Z,94197.00
2024-04-18T00:05:38.663Z,94197.00
2024-04-18T00:06:38.634Z,94198.00
2024-04-18T00:07:38.636Z,94195.00
2024-04-18T00:08:38.697Z,94196.00
2024-04-18T00:09:38.742Z,94196.00
2024-04-18T00:10:38.733Z,94197.00
2024-04-18T00:11:38.792Z,94196.00
2024-04-18T00:12:38.879Z,94195.00
2024-04-18T00:13:38.859Z,94194.00
2024-04-18T00:14:38.887Z,94195.00
2024-04-18T00:15:38.951Z,94194.00
2024-04-18T00:16:38.965Z,94195.00
2024-04-18T00:17:39.189Z,94193.00
2024-04-18T00:18:39.144Z,94193.00
2024-04-18T00:19:39.094Z,94190.00
2024-04-18T00:20:39.095Z,94189.00
2024-04-18T00:21:39.193Z,94187.00
2024-04-18T00:22:39.124Z,94186.00
2024-04-18T00:23:39.121Z,94185.00
2024-04-18T00:24:39.205Z,94183.00
2024-04-18T00:25:39.238Z,94184.00
2024-04-18T00:26:39.244Z,94184.00
2024-04-18T00:27:39.377Z,94184.00
2024-04-18T00:28:39.474Z,94184.00
2024-04-18T00:29:39.455Z,94183.00
2024-04-18T00:30:39.476Z,94184.00
2024-04-18T00:31:39.475Z,94183.00
2024-04-18T00:32:39.463Z,94182.00
2024-04-18T00:33:39.482Z,94179.00
2024-04-18T00:34:39.513Z,94179.00
2024-04-18T00:35:39.539Z,94180.00
2024-04-18T00:36:39.609Z,94182.00
2024-04-18T00:37:39.568Z,94180.00
2024-04-18T00:38:39.596Z,94180.00
2024-04-18T00:39:39.643Z,94179.00
2024-04-18T00:40:39.645Z,94179.00
2024-04-18T00:41:39.625Z,94177.00
2024-04-18T00:42:39.766Z,94180.00
2024-04-18T00:43:39.637Z,94178.00
2024-04-18T00:44:39.637Z,94179.00
2024-04-18T00:45:39.721Z,94181.00
2024-04-18T00:46:39.691Z,94181.00
2024-04-18T00:47:39.773Z,94180.00
2024-04-18T00:48:39.845Z,94182.00
2024-04-18T00:49:39.747Z,94180.00
2024-04-18T00:50:39.746Z,94180.00
2024-04-18T00:51:39.806Z,94182.00
2024-04-18T00:52:39.851Z,94182.00
2024-04-18T00:53:39.872Z,94179.00
2024-04-18T00:54:39.961Z,94182.00
2024-04-18T00:55:39.889Z,94183.00
2024-04-18T00:56:39.894Z,94183.00
2024-04-18T00:57:39.946Z,94182.00
2024-04-18T00:58:39.921Z,94184.00
2024-04-18T00:59:39.928Z,94183.00
2024-04-18T01:00:39.972Z,94183.00
2024-04-18T01:01:39.930Z,94183.00
2024-04-18T01:02:39.940Z,94185.00
2024-04-18T01:03:40.013Z,94184.00
2024-04-18T01:04:40.022Z,94184.00
2024-04-18T01:05:40.019Z,94187.00
2024-04-18T01:06:40.022Z,94186.00
2024-04-18T01:07:39.965Z,94187.00
2024-04-18T01:08:39.969Z,94189.00
2024-04-18T01:09:40.031Z,94190.00
2024-04-18T01:10:39.988Z,94189.00
2024-04-18T01:11:40.110Z,94189.00
2024-04-18T01:12:40.041Z,94190.00
2024-04-18T01:13:40.068Z,94188.00
2024-04-18T01:14:40.048Z,94188.00
2024-04-18T01:15:40.130Z,94187.00
2024-04-18T01:16:40.103Z,94188.00
2024-04-18T01:17:40.179Z,94188.00
2024-04-18T01:18:40.147Z,94187.00
2024-04-18T01:19:40.120Z,94189.00
2024-04-18T01:20:40.113Z,94187.00
2024-04-18T01:21:40.160Z,94188.00
2024-04-18T01:22:40.146Z,94187.00
2024-04-18T01:23:40.198Z,94188.00
2024-04-18T01:24:40.161Z,94187.00
2024-04-18T01:25:40.165Z,94188.00
2024-04-18T01:26:40.224Z,94187.00
2024-04-18T01:27:40.260Z,94189.00
2024-04-18T01:28:40.195Z,94189.00
2024-04-18T01:29:40.174Z,94190.00
2024-04-18T01:30:40.284Z,94187.00
2024-04-18T01:31:40.213Z,94190.00
2024-04-18T01:32:40.293Z,94188.00
2024-04-18T01:33:40.326Z,94187.00
2024-04-18T01:34:40.362Z,94185.00
2024-04-18T01:35:40.232Z,94186.00
2024-04-18T01:36:40.284Z,94183.00
2024-04-18T01:37:40.232Z,94183.00
2024-04-18T01:38:40.255Z,94185.00
2024-04-18T01:39:40.393Z,94183.00
2024-04-18T01:40:40.334Z,94184.00
2024-04-18T01:41:40.257Z,94184.00
2024-04-18T01:42:40.339Z,94184.00
2024-04-18T01:43:40.267Z,94184.00
2024-04-18T01:44:40.273Z,94183.00
2024-04-18T01:45:40.311Z,94182.00
2024-04-18T01:46:40.292Z,94182.00
2024-04-18T01:47:40.351Z,94181.00
2024-04-18T01:48:40.387Z,94180.00
2024-04-18T01:49:40.346Z,94178.00
2024-04-18T01:50:40.360Z,94179.00
2024-04-18T01:51:40.377Z,94181.00
2024-04-18T01:52:40.363Z,94182.00
2024-04-18T01:53:40.335Z,94178.00
2024-04-18T01:54:40.415Z,94179.00
2024-04-18T01:55:40.398Z,94180.00
2024-04-18T01:56:40.394Z,94181.00
2024-04-18T01:57:40.501Z,94179.00
2024-04-18T01:58:40.443Z,94181.00
2024-04-18T01:59:40.410Z,94182.00
2024-04-18T02:00:40.492Z,94186.00
2024-04-18T02:01:40.460Z,94183.00
2024-04-18T02:02:40.467Z,94184.00
2024-04-18T02:03:40.686Z,94183.00
2024-04-18T02:04:40.547Z,94181.00
2024-04-18T02:05:40.544Z,94183.00
2024-04-18T02:06:40.524Z,94184.00
2024-04-18T02:07:40.535Z,94182.00
2024-04-18T02:08:40.563Z,94179.00
2024-04-18T02:09:40.560Z,94178.00
2024-04-18T02:10:40.578Z,94180.00
2024-04-18T02:11:40.572Z,94178.00
2024-04-18T02:12:40.574Z,94178.00
2024-04-18T02:13:40.588Z,94179.00
2024-04-18T02:14:40.730Z,94179.00
2024-04-18T02:15:40.733Z,94179.00
2024-04-18T02:16:40.676Z,94179.00
2024-04-18T02:17:40.733Z,94180.00
2024-04-18T02:18:40.698Z,94181.00
2024-04-18T02:19:40.685Z,94182.00
2024-04-18T02:20:40.696Z,94183.00
2024-04-18T02:21:40.832Z,94181.00
2024-04-18T02:22:40.711Z,94182.00
2024-04-18T02:23:40.719Z,94182.00
2024-04-18T02:24:40.779Z,94181.00
2024-04-18T02:25:40.755Z,94183.00
2024-04-18T02:26:40.774Z,94184.00
2024-04-18T02:27:40.799Z,94182.00
2024-04-18T02:28:40.778Z,94185.00
2024-04-18T02:29:40.971Z,94183.00
2024-04-18T02:30:41.032Z,94183.00
2024-04-18T02:31:40.882Z,94183.00
2024-04-18T02:32:41.018Z,94183.00
2024-04-18T02:33:40.934Z,94184.00
2024-04-18T02:34:40.873Z,94185.00
2024-04-18T02:35:40.946Z,94183.00
2024-04-18T02:36:41.022Z,94183.00
2024-04-18T02:37:40.877Z,94185.00
2024-04-18T02:38:40.959Z,94182.00
2024-04-18T02:39:40.988Z,94184.00
2024-04-18T02:40:40.990Z,94182.00
2024-04-18T02:41:40.964Z,94183.00
2024-04-18T02:42:41.101Z,94184.00
2024-04-18T02:43:40.990Z,94186.00
2024-04-18T02:44:41.071Z,94189.00
2024-04-18T02:45:41.134Z,94190.00
2024-04-18T02:46:41.109Z,94190.00
2024-04-18T02:47:41.112Z,94193.00
2024-04-18T02:48:41.207Z,94192.00
2024-04-18T02:49:41.076Z,94191.00
2024-04-18T02:50:41.345Z,94191.00
2024-04-18T02:51:41.146Z,94189.00
2024-04-18T02:52:41.144Z,94191.00
2024-04-18T02:53:41.177Z,94189.00
2024-04-18T02:54:41.258Z,94187.00
2024-04-18T02:55:41.216Z,94186.00
2024-04-18T02:56:41.218Z,94188.00
2024-04-18T02:57:41.355Z,94188.00
2024-04-18T02:58:41.236Z,94188.00
2024-04-18T02:59:41.323Z,94187.00
2024-04-18T03:00:41.392Z,94188.00
2024-04-18T03:01:41.362Z,94189.00
2024-04-18T03:02:41.357Z,94191.00
2024-04-18T03:03:41.397Z,94188.00
2024-04-18T03:04:41.398Z,94188.00
2024-04-18T03:05:41.448Z,94189.00
2024-04-18T03:06:41.492Z,94189.00
2024-04-18T03:07:41.404Z,94189.00
2024-04-18T03:08:41.508Z,94188.00
2024-04-18T03:09:41.544Z,94188.00
2024-04-18T03:10:41.480Z,94190.00
2024-04-18T03:11:41.536Z,94189.00
2024-04-18T03:12:41.560Z,94190.00
2024-04-18T03:13:41.541Z,94189.00
2024-04-18T03:14:41.622Z,94192.00
2024-04-18T03:15:41.566Z,94191.00
2024-04-18T03:16:41.625Z,94191.00
2024-04-18T03:17:41.693Z,94190.00
2024-04-18T03:18:41.756Z,94191.00
2024-04-18T03:19:41.689Z,94191.00
2024-04-18T03:20:41.702Z,94193.00
2024-04-18T03:21:41.731Z,94190.00
2024-04-18T03:22:41.774Z,94191.00
2024-04-18T03:23:41.785Z,94190.00
2024-04-18T03:24:41.824Z,94192.00
2024-04-18T03:25:41.896Z,94193.00
2024-04-18T03:26:41.791Z,94191.00
2024-04-18T03:27:41.871Z,94193.00
2024-04-18T03:28:41.837Z,94192.00
2024-04-18T03:29:41.877Z,94191.00
2024-04-18T03:30:41.890Z,94195.00
2024-04-18T03:31:41.935Z,94196.00
2024-04-18T03:32:41.989Z,94196.00
2024-04-18T03:33:42.029Z,94199.00
2024-04-18T03:34:42.004Z,94199.00
2024-04-18T03:35:42.039Z,94201.00
2024-04-18T03:36:42.081Z,94201.00
2024-04-18T03:37:42.078Z,94202.00
2024-04-18T03:38:42.142Z,94203.00
2024-04-18T03:39:42.120Z,94203.00
2024-04-18T03:40:42.096Z,94203.00
2024-04-18T03:41:42.161Z,94203.00
2024-04-18T03:42:42.223Z,94205.00
2024-04-18T03:43:42.324Z,94204.00
2024-04-18T03:44:42.224Z,94204.00
2024-04-18T03:45:42.255Z,94205.00
2024-04-18T03:46:42.240Z,94204.00
2024-04-18T03:47:42.466Z,94203.00
2024-04-18T03:48:42.335Z,94204.00
2024-04-18T03:49:42.308Z,94205.00
2024-04-18T03:50:42.302Z,94205.00
2024-04-18T03:51:42.536Z,94205.00
2024-04-18T03:52:42.510Z,94206.00
2024-04-18T03:53:42.390Z,94205.00
2024-04-18T03:54:55.870Z,94206.00
2024-04-18T03:55:43.480Z,94207.00
2024-04-18T03:56:42.457Z,94206.00
2024-04-18T03:57:42.476Z,94206.00
2024-04-18T03:58:42.493Z,94210.00
2024-04-18T03:59:42.479Z,94209.00
2024-04-18T04:00:43.101Z,94210.00
2024-04-18T04:01:42.541Z,94253.00
2024-04-18T04:02:42.541Z,94257.00
2024-04-18T04:03:42.532Z,94259.00
2024-04-18T04:04:42.453Z,94258.00
2024-04-18T04:05:42.474Z,94259.00
2024-04-18T04:06:42.570Z,94261.00
2024-04-18T04:07:42.474Z,94263.00
2024-04-18T04:08:42.492Z,94260.00
2024-04-18T04:09:42.462Z,94262.00
2024-04-18T04:10:42.471Z,94263.00
2024-04-18T04:11:42.468Z,94263.00
2024-04-18T04:12:42.502Z,94265.00
2024-04-18T04:13:50.206Z,94265.00
2024-04-18T04:14:50.218Z,94268.00
2024-04-18T04:15:50.221Z,94267.00
2024-04-18T04:16:50.187Z,94269.00
2024-04-18T04:17:50.276Z,94267.00
2024-04-18T04:18:50.220Z,94268.00
2024-04-18T04:19:50.179Z,94268.00
2024-04-18T04:20:50.157Z,94269.00
2024-04-18T04:21:50.291Z,94267.00
2024-04-18T04:22:50.160Z,94270.00
2024-04-18T04:23:50.172Z,94272.00
2024-04-18T04:24:50.230Z,94271.00
2024-04-18T04:25:50.184Z,94276.00
2024-04-18T04:26:50.187Z,94275.00
2024-04-18T04:27:50.296Z,94277.00
2024-04-18T04:28:50.209Z,94277.00
2024-04-18T04:29:50.219Z,94278.00
2024-04-18T04:30:58.075Z,94231.00
2024-04-18T04:32:05.742Z,94233.00
2024-04-18T04:33:05.716Z,94233.00
2024-04-18T04:34:05.702Z,94235.00
2024-04-18T04:35:05.714Z,94235.00
2024-04-18T04:36:05.724Z,94234.00
2024-04-18T04:37:05.721Z,94236.00
2024-04-18T04:38:05.761Z,94236.00
2024-04-18T04:39:05.756Z,94238.00
2024-04-18T04:40:05.691Z,94237.00
2024-04-18T04:41:05.692Z,94238.00
2024-04-18T04:42:05.693Z,94238.00
2024-04-18T04:43:05.688Z,94240.00
2024-04-18T04:44:05.689Z,94239.00
2024-04-18T04:45:05.711Z,94244.00
2024-04-18T04:46:05.709Z,94240.00
2024-04-18T04:47:05.786Z,94241.00
2024-04-18T04:48:05.775Z,94241.00
2024-04-18T04:49:05.785Z,94242.00
2024-04-18T04:50:05.717Z,94240.00
2024-04-18T04:51:05.720Z,94244.00
2024-04-18T04:52:05.713Z,94243.00
2024-04-18T04:53:05.731Z,94244.00
2024-04-18T04:54:05.732Z,94247.00
2024-04-18T04:55:05.745Z,94249.00
2024-04-18T04:56:05.736Z,94235.00
2024-04-18T04:57:05.692Z,94244.00
2024-04-18T04:58:05.714Z,94245.00
2024-04-18T04:59:05.743Z,94245.00
2024-04-18T05:00:05.707Z,94249.00
2024-04-18T05:01:05.836Z,94249.00
2024-04-18T05:02:05.730Z,94250.00
2024-04-18T05:03:05.759Z,94253.00
2024-04-18T05:04:05.812Z,94253.00
2024-04-18T05:05:05.736Z,94255.00
2024-04-18T05:06:05.727Z,94257.00
2024-04-18T05:07:05.745Z,94256.00
2024-04-18T05:08:05.736Z,94257.00
2024-04-18T05:09:05.727Z,94259.00
2024-04-18T05:10:05.760Z,94260.00
2024-04-18T05:11:05.736Z,94260.00
2024-04-18T05:12:05.760Z,94262.00
2024-04-18T05:13:05.726Z,94263.00
2024-04-18T05:14:05.763Z,94264.00
2024-04-18T05:15:05.769Z,94265.00
2024-04-18T05:16:05.759Z,94268.00
2024-04-18T05:17:05.799Z,94266.00
2024-04-18T05:18:05.795Z,94267.00
2024-04-18T05:19:05.835Z,94271.00
2024-04-18T05:20:05.767Z,94269.00
2024-04-18T05:21:05.752Z,94270.00
2024-04-18T05:22:05.832Z,94270.00
2024-04-18T05:23:05.734Z,94273.00
2024-04-18T05:24:05.854Z,94274.00
2024-04-18T05:25:05.751Z,94272.00
2024-04-18T05:26:05.758Z,94276.00
2024-04-18T05:27:05.764Z,94276.00
2024-04-18T05:28:05.789Z,94273.00
2024-04-18T05:29:05.873Z,94280.00
2024-04-18T05:30:05.830Z,94275.00
2024-04-18T05:31:05.834Z,94274.00
2024-04-18T05:32:05.994Z,94275.00
2024-04-18T05:33:05.982Z,94283.00
2024-04-18T05:34:06.031Z,94284.00
2024-04-18T05:35:05.964Z,94283.00
2024-04-18T05:36:06.063Z,94283.00
2024-04-18T05:37:06.062Z,94284.00
2024-04-18T05:38:06.135Z,94285.00
2024-04-18T05:39:06.146Z,94288.00
2024-04-18T05:40:06.235Z,94287.00
2024-04-18T05:41:06.271Z,94290.00
2024-04-18T05:42:06.371Z,94294.00
2024-04-18T05:43:06.387Z,94294.00
2024-04-18T05:44:06.371Z,94296.00
2024-04-18T05:45:06.381Z,94297.00
2024-04-18T05:46:06.496Z,94300.00
2024-04-18T05:47:06.972Z,94299.00
2024-04-18T05:48:06.521Z,94301.00
2024-04-18T05:49:06.565Z,94363.00
2024-04-18T05:50:06.617Z,94362.00
2024-04-18T05:51:06.628Z,94362.00
2024-04-18T05:52:06.910Z,94358.00
2024-04-18T05:53:07.420Z,94363.00
2024-04-18T05:54:06.804Z,94359.00
2024-04-18T05:55:06.817Z,94359.00
2024-04-18T05:56:06.801Z,94362.00
2024-04-18T05:57:06.891Z,94362.00
2024-04-18T05:58:06.911Z,94367.00
2024-04-18T05:59:06.934Z,94369.00
2024-04-18T06:00:06.942Z,94368.00
2024-04-18T06:01:07.097Z,94372.00
2024-04-18T06:02:09.242Z,94372.00
2024-04-18T06:03:07.025Z,94375.00
2024-04-18T06:04:07.147Z,94377.00
2024-04-18T06:05:06.979Z,94379.00
2024-04-18T06:06:06.990Z,94378.00
2024-04-18T06:07:07.414Z,94379.00
2024-04-18T06:08:07.069Z,94376.00
2024-04-18T06:09:06.991Z,94379.00
2024-04-18T06:10:06.998Z,94377.00
2024-04-18T06:11:07.398Z,94381.00
2024-04-18T06:12:06.974Z,94384.00
2024-04-18T06:13:06.981Z,94382.00
2024-04-18T06:14:07.498Z,94387.00
2024-04-18T06:15:07.027Z,94389.00
2024-04-18T06:16:07.099Z,94388.00
2024-04-18T06:17:07.014Z,94387.00
2024-04-18T06:18:08.015Z,94385.00
2024-04-18T06:19:07.900Z,94385.00
2024-04-18T06:20:07.054Z,94384.00
2024-04-18T06:21:07.041Z,94384.00
2024-04-18T06:22:06.999Z,94383.00
2024-04-18T06:23:07.028Z,94383.00
2024-04-18T06:24:07.012Z,94388.00
2024-04-18T06:25:08.712Z,94387.00
2024-04-18T06:26:07.095Z,94392.00
2024-04-18T06:27:07.145Z,94389.00
2024-04-18T06:28:07.960Z,94390.00
2024-04-18T06:29:07.469Z,94387.00
2024-04-18T06:30:07.024Z,94389.00
2024-04-18T06:31:09.258Z,94387.00
2024-04-18T06:32:07.015Z,94388.00
2024-04-18T06:33:07.143Z,94391.00
2024-04-18T06:34:07.521Z,94389.00
2024-04-18T06:35:07.090Z,94390.00
2024-04-18T06:36:08.068Z,94392.00
2024-04-18T06:37:08.362Z,94390.00
2024-04-18T06:38:07.403Z,94393.00
2024-04-18T06:39:07.117Z,94395.00
2024-04-18T06:40:07.085Z,94396.00
2024-04-18T06:41:07.421Z,94398.00
2024-04-18T06:42:07.019Z,94398.00
2024-04-18T06:43:07.054Z,94345.00
2024-04-18T06:44:07.030Z,94348.00
2024-04-18T06:45:07.031Z,94349.00
2024-04-18T06:46:07.966Z,94352.00
2024-04-18T06:47:07.487Z,94402.00
2024-04-18T06:48:07.126Z,94406.00
2024-04-18T06:49:07.072Z,94406.00
2024-04-18T06:50:07.046Z,94410.00
2024-04-18T06:51:07.092Z,94409.00
2024-04-18T06:52:07.382Z,94412.00
2024-04-18T06:53:07.825Z,94411.00
2024-04-18T06:54:07.057Z,94413.00
2024-04-18T06:55:07.041Z,94411.00
2024-04-18T06:56:07.097Z,94414.00
2024-04-18T06:57:07.954Z,94413.00
2024-04-18T06:58:07.030Z,94413.00
2024-04-18T06:59:07.120Z,94413.00
2024-04-18T07:00:07.101Z,94415.00
2024-04-18T07:01:07.223Z,94414.00
2024-04-18T07:02:07.469Z,94417.00
2024-04-18T07:03:07.148Z,94416.00
2024-04-18T07:04:07.245Z,94418.00
2024-04-18T07:05:13.925Z,94415.00
2024-04-18T07:06:10.377Z,94418.00
2024-04-18T07:07:07.181Z,94419.00
2024-04-18T07:08:07.424Z,94416.00
2024-04-18T07:09:07.169Z,94417.00
2024-04-18T07:10:07.273Z,94416.00
2024-04-18T07:11:08.042Z,94415.00
2024-04-18T07:12:07.179Z,94416.00
2024-04-18T07:13:07.506Z,94417.00
2024-04-18T07:14:07.260Z,94417.00
2024-04-18T07:15:07.204Z,94416.00
2024-04-18T07:16:07.224Z,94417.00
2024-04-18T07:17:07.288Z,94421.00
2024-04-18T07:18:07.916Z,94424.00
2024-04-18T07:19:07.265Z,94423.00
2024-04-18T07:20:07.255Z,94423.00
2024-04-18T07:21:07.967Z,94425.00
2024-04-18T07:22:08.021Z,94423.00
2024-04-18T07:23:07.415Z,94425.00
2024-04-18T07:24:07.239Z,94423.00
2024-04-18T07:25:07.207Z,94426.00
2024-04-18T07:26:07.929Z,94429.00
2024-04-18T07:27:07.236Z,94426.00
2024-04-18T07:28:14.908Z,94427.00
2024-04-18T07:29:07.311Z,94427.00
2024-04-18T07:30:07.337Z,94425.00
2024-04-18T07:31:07.231Z,94379.00
2024-04-18T07:32:07.422Z,94375.00
2024-04-18T07:33:07.236Z,94375.00
2024-04-18T07:34:07.467Z,94376.00
2024-04-18T07:35:07.979Z,94378.00
2024-04-18T07:36:07.198Z,94432.00
2024-04-18T07:37:07.261Z,94434.00
2024-04-18T07:38:07.251Z,94434.00
2024-04-18T07:39:07.424Z,94437.00
2024-04-18T07:40:07.289Z,94436.00
2024-04-18T07:41:07.238Z,94434.00
2024-04-18T07:42:07.224Z,94435.00
2024-04-18T07:43:07.239Z,94438.00
2024-04-18T07:44:08.626Z,94438.00
2024-04-18T07:45:07.254Z,94439.00
2024-04-18T07:46:07.259Z,94438.00
2024-04-18T07:47:07.358Z,94437.00
2024-04-18T07:48:07.501Z,94441.00
2024-04-18T07:49:07.499Z,94438.00
2024-04-18T07:50:07.342Z,94440.00
2024-04-18T07:51:07.358Z,94439.00
2024-04-18T07:52:12.660Z,94442.00
2024-04-18T07:53:10.141Z,94446.00
2024-04-18T07:54:07.389Z,94445.00
2024-04-18T07:55:07.398Z,94445.00
2024-04-18T07:56:07.914Z,94446.00
2024-04-18T07:57:07.781Z,94446.00
2024-04-18T07:58:08.159Z,94446.00
2024-04-18T07:59:08.257Z,94448.00
2024-04-18T08:00:08.486Z,94450.00
2024-04-18T08:01:08.842Z,94450.00
2024-04-18T08:02:08.919Z,94450.00
2024-04-18T08:03:09.172Z,94453.00
2024-04-18T08:04:25.731Z,94452.00
2024-04-18T08:05:10.395Z,94455.00
2024-04-18T08:06:09.750Z,94453.00
2024-04-18T08:07:10.341Z,94455.00
2024-04-18T08:08:10.473Z,94455.00
2024-04-18T08:09:11.424Z,94457.00
2024-04-18T08:10:11.132Z,94457.00
2024-04-18T08:11:26.947Z,94461.00
2024-04-18T08:12:24.003Z,94462.00
2024-04-18T08:13:13.231Z,94467.00
2024-04-18T08:14:11.897Z,94463.00
2024-04-18T08:15:12.112Z,94465.00
2024-04-18T08:16:08.499Z,94464.00
2024-04-18T08:17:07.516Z,94470.00
2024-04-18T08:18:08.003Z,94464.00
2024-04-18T08:19:07.479Z,94464.00
2024-04-18T08:20:07.950Z,94469.00
2024-04-18T08:21:08.520Z,94471.00
2024-04-18T08:22:07.413Z,94473.00
2024-04-18T08:23:07.668Z,94472.00
2024-04-18T08:24:08.029Z,94474.00
2024-04-18T08:25:07.509Z,94466.00
2024-04-18T08:26:07.437Z,94417.00
2024-04-18T08:27:07.603Z,94419.00
2024-04-18T08:28:07.629Z,94423.00
2024-04-18T08:29:07.454Z,94422.00
2024-04-18T08:30:07.580Z,94418.00
2024-04-18T08:31:07.477Z,94421.00
2024-04-18T08:32:07.744Z,94424.00
2024-04-18T08:33:08.079Z,94422.00
2024-04-18T08:34:11.931Z,94424.00
2024-04-18T08:35:08.474Z,94420.00
2024-04-18T08:36:07.548Z,94426.00
2024-04-18T08:37:08.014Z,94427.00
2024-04-18T08:38:07.507Z,94427.00
2024-04-18T08:39:07.493Z,94429.00
2024-04-18T08:40:07.480Z,94425.00
2024-04-18T08:41:07.506Z,94427.00
2024-04-18T08:42:07.985Z,94427.00
2024-04-18T08:43:08.490Z,94426.00
2024-04-18T08:44:07.667Z,94430.00
2024-04-18T08:45:08.137Z,94496.00
2024-04-18T08:46:08.393Z,94496.00
2024-04-18T08:47:08.106Z,94491.00
2024-04-18T08:48:08.218Z,94493.00
2024-04-18T08:49:07.947Z,94492.00
2024-04-18T08:50:07.867Z,94490.00
2024-04-18T08:51:07.930Z,94492.00
2024-04-18T08:52:08.514Z,94494.00
2024-04-18T08:53:08.021Z,94490.00
2024-04-18T08:54:08.014Z,94493.00
2024-04-18T08:55:08.039Z,94495.00
2024-04-18T08:56:08.109Z,94493.00
2024-04-18T08:57:08.516Z,94496.00
2024-04-18T08:58:08.162Z,94496.00
2024-04-18T08:59:08.921Z,94494.00
2024-04-18T09:00:08.291Z,94498.00
2024-04-18T09:01:08.332Z,94499.00
2024-04-18T09:02:08.372Z,94503.00
2024-04-18T09:03:08.469Z,94501.00
2024-04-18T09:04:08.460Z,94501.00
2024-04-18T09:05:08.463Z,94501.00
2024-04-18T09:06:08.500Z,94500.00
2024-04-18T09:07:08.511Z,94499.00
2024-04-18T09:08:08.526Z,94500.00
2024-04-18T09:09:08.972Z,94499.00
2024-04-18T09:10:08.554Z,94497.00
2024-04-18T09:11:08.648Z,94447.00
2024-04-18T09:12:08.642Z,94494.00
2024-04-18T09:13:09.474Z,94478.00
2024-04-18T09:14:08.975Z,94482.00
2024-04-18T09:15:09.717Z,94494.00
2024-04-18T09:16:08.761Z,94494.00
2024-04-18T09:17:08.833Z,94490.00
2024-04-18T09:18:09.047Z,94495.00
2024-04-18T09:19:09.533Z,94444.00
2024-04-18T09:20:08.956Z,94496.00
2024-04-18T09:21:09.067Z,94448.00
2024-04-18T09:22:09.102Z,94449.00
2024-04-18T09:23:09.104Z,94446.00
2024-04-18T09:24:09.497Z,94447.00
2024-04-18T09:25:09.472Z,94449.00
2024-04-18T09:26:10.060Z,94501.00
2024-04-18T09:27:09.279Z,94503.00
2024-04-18T09:28:09.981Z,94506.00
2024-04-18T09:29:09.744Z,94508.00
2024-04-18T09:30:09.526Z,94505.00
2024-04-18T09:31:09.475Z,94452.00
2024-04-18T09:32:11.480Z,94453.00
2024-04-18T09:33:09.673Z,94452.00
2024-04-18T09:34:09.790Z,94451.00
2024-04-18T09:35:09.731Z,94453.00
2024-04-18T09:36:09.848Z,94449.00
2024-04-18T09:37:09.917Z,94461.00
2024-04-18T09:38:10.908Z,94456.00
2024-04-18T09:39:09.985Z,94453.00
2024-04-18T09:40:10.085Z,94454.00
2024-04-18T09:41:10.110Z,94461.00
2024-04-18T09:42:10.509Z,94454.00
2024-04-18T09:43:10.106Z,94453.00
2024-04-18T09:44:10.528Z,94455.00
2024-04-18T09:45:10.184Z,94459.00
2024-04-18T09:46:12.992Z,94454.00
2024-04-18T09:47:10.510Z,94453.00
2024-04-18T09:48:10.255Z,94454.00
2024-04-18T09:49:10.228Z,94511.00
2024-04-18T09:50:10.216Z,94511.00
2024-04-18T09:51:10.172Z,94507.00
2024-04-18T09:52:10.551Z,94505.00
2024-04-18T09:53:10.171Z,94504.00
2024-04-18T09:54:10.216Z,94502.00
2024-04-18T09:55:10.184Z,94504.00
2024-04-18T09:56:10.189Z,94501.00
2024-04-18T09:57:11.042Z,94501.00
2024-04-18T09:58:10.181Z,94500.00
2024-04-18T09:59:10.173Z,94498.00
2024-04-18T10:00:10.214Z,94501.00
2024-04-18T10:01:10.221Z,94499.00
2024-04-18T10:02:10.546Z,94496.00
2024-04-18T10:03:10.330Z,94496.00
2024-04-18T10:04:10.743Z,94502.00
2024-04-18T10:05:10.282Z,94500.00
2024-04-18T10:06:10.319Z,94499.00
2024-04-18T10:07:11.058Z,94500.00
2024-04-18T10:08:11.055Z,94500.00
2024-04-18T10:09:53.386Z,94499.00
2024-04-18T10:10:53.427Z,94498.00
2024-04-18T10:11:53.379Z,94498.00
2024-04-18T10:12:53.340Z,94497.00
2024-04-18T10:13:53.503Z,94500.00
2024-04-18T10:14:53.535Z,94501.00
2024-04-18T10:15:53.310Z,94498.00
2024-04-18T10:16:53.372Z,94501.00
2024-04-18T10:17:53.381Z,94499.00
2024-04-18T10:18:54.464Z,94500.00
2024-04-18T10:19:53.437Z,94498.00
2024-04-18T10:20:53.321Z,94495.00
2024-04-18T10:22:06.133Z,94495.00
2024-04-18T10:22:54.987Z,94496.00
2024-04-18T10:23:53.446Z,94496.00
2024-04-18T10:24:53.369Z,94495.00
2024-04-18T10:25:53.915Z,94494.00
2024-04-18T10:26:53.322Z,94443.00
2024-04-18T10:27:53.351Z,94441.00
2024-04-18T10:28:53.313Z,94445.00
2024-04-18T10:29:53.428Z,94440.00
2024-04-18T10:30:53.419Z,94442.00
2024-04-18T10:31:53.316Z,94442.00
2024-04-18T10:32:53.427Z,94495.00
2024-04-18T10:33:53.467Z,94493.00
2024-04-18T10:34:54.417Z,94497.00
2024-04-18T10:35:53.892Z,94497.00
2024-04-18T10:36:53.466Z,94498.00
2024-04-18T10:37:54.458Z,94494.00
2024-04-18T10:38:53.618Z,94492.00
2024-04-18T10:39:53.583Z,94491.00
2024-04-18T10:40:54.342Z,94490.00
2024-04-18T10:41:53.687Z,94490.00
2024-04-18T10:42:54.504Z,94489.00
2024-04-18T10:43:53.732Z,94491.00
2024-04-18T10:44:53.787Z,94493.00
2024-04-18T10:45:53.828Z,94493.00
2024-04-18T10:46:53.714Z,94495.00
2024-04-18T10:47:53.959Z,94495.00
2024-04-18T10:48:53.989Z,94494.00
2024-04-18T10:49:53.876Z,94490.00
2024-04-18T10:50:54.410Z,94490.00
2024-04-18T10:51:53.884Z,94491.00
2024-04-18T10:52:53.957Z,94489.00
2024-04-18T10:53:53.897Z,94489.00
2024-04-18T10:54:53.974Z,94486.00
2024-04-18T10:55:53.901Z,94486.00
2024-04-18T10:56:53.978Z,94489.00
2024-04-18T10:57:54.041Z,94487.00
2024-04-18T10:58:54.027Z,94487.00
2024-04-18T10:59:54.153Z,94487.00
2024-04-18T11:00:54.139Z,94485.00
2024-04-18T11:01:54.177Z,94484.00
2024-04-18T11:02:55.955Z,94485.00
2024-04-18T11:03:54.502Z,94485.00
2024-04-18T11:04:54.379Z,94486.00
2024-04-18T11:05:54.391Z,94483.00
2024-04-18T11:06:54.433Z,94487.00
2024-04-18T11:07:54.795Z,94488.00
2024-04-18T11:08:54.591Z,94486.00
2024-04-18T11:09:54.627Z,94484.00
2024-04-18T11:10:54.719Z,94486.00
2024-04-18T11:11:54.746Z,94489.00
2024-04-18T11:12:54.847Z,94488.00
2024-04-18T11:13:54.976Z,94491.00
2024-04-18T11:14:55.010Z,94488.00
2024-04-18T11:15:55.042Z,94491.00
2024-04-18T11:16:55.437Z,94492.00
2024-04-18T11:17:55.273Z,94434.00
2024-04-18T11:18:55.375Z,94437.00
2024-04-18T11:19:55.397Z,94436.00
2024-04-18T11:20:55.396Z,94434.00
2024-04-18T11:21:55.957Z,94436.00
2024-04-18T11:23:01.336Z,94435.00
2024-04-18T11:23:56.521Z,94432.00
2024-04-18T11:24:55.484Z,94437.00
2024-04-18T11:25:55.464Z,94437.00
2024-04-18T11:26:55.535Z,94437.00
2024-04-18T11:27:55.477Z,94436.00
2024-04-18T11:28:55.467Z,94437.00
2024-04-18T11:29:55.461Z,94431.00
2024-04-18T11:30:55.447Z,94430.00
2024-04-18T11:31:55.496Z,94430.00
2024-04-18T11:32:55.490Z,94429.00
2024-04-18T11:33:55.554Z,94426.00
2024-04-18T11:35:00.616Z,94429.00
2024-04-18T11:35:56.529Z,94427.00
2024-04-18T11:36:55.466Z,94428.00
2024-04-18T11:37:55.448Z,94427.00
2024-04-18T11:38:55.503Z,94424.00
2024-04-18T11:39:55.451Z,94421.00
2024-04-18T11:40:55.456Z,94423.00
2024-04-18T11:41:55.456Z,94424.00
2024-04-18T11:42:55.480Z,94420.00
2024-04-18T11:43:55.488Z,94418.00
2024-04-18T11:44:55.451Z,94418.00
2024-04-18T11:45:55.481Z,94420.00